Latest Coastal Weather Observations for Eucla

IDS60701

Issued at 4:41 pm CDT Monday 6 December 2021 (issued every 10 minutes, with the page automatically refreshed every 10 minutes)

About coastal observations | Map of coastal stations | Coastal observations for SA | Marine services | Other Formats
Station Details ID: 011003 Name: EUCLA Lat: -31.68 Lon: 128.90 Height: 93.1 m
Data from the previous 72 hours. | See also: Recent months at Eucla
Date/Time
CDT
Wind Sea
Height
m
Swell Vis
km
Cloud Weather Temp
°C
Press
MSL
hPa
Rain since
9am
mm
Dir  Spd
kts
Gust
kts
Height
m
Period
s
Dir
06/04:30pm SSE 10 15 - - - - - - - 20.5 1016.6 0.0
06/04:00pm SSE 11 17 - - - - - - - 19.7 1016.8 0.0
06/03:30pm SSE 11 17 - - - - - - - 20.1 1016.7 0.0
06/03:00pm SE 11 15 - - - - - - - 20.4 1016.6 0.0
06/02:30pm SSE 10 15 - - - - - - - 20.0 1016.6 0.0
06/02:00pm SSE 10 17 - - - - - - - 20.1 1016.6 0.0
06/01:30pm SE 9 15 - - - - - - - 20.1 1016.7 0.0
06/01:00pm SE 9 14 - - - - - - - 20.0 1016.6 0.0
06/12:30pm SE 9 15 - - - - - - - 19.8 1016.6 0.0
06/12:00pm SSE 9 13 - - - - - - - 19.4 1016.5 0.0
06/11:30am SE 8 13 - - - - - - - 19.7 1016.3 0.0
06/11:00am SE 8 12 - - - - - - - 19.6 1016.3 0.0
06/10:30am SE 7 11 - - - - - - - 18.6 1016.4 0.0
06/10:00am SE 7 11 - - - - - - - 18.5 1016.3 0.0
06/09:30am SE 7 11 - - - - - - - 17.6 1016.1 0.0
06/09:00am ESE 6 9 - - - - - - - 17.4 1015.8 0.0
06/08:30am E 3 6 - - - - - - - 15.9 1016.0 0.0
06/08:00am NE 4 7 - - - - - - - 15.7 1015.3 0.0
06/07:30am NNE 4 4 - - - - - - - 13.7 1014.8 0.0
06/07:00am NE 5 5 - - - - - - - 12.9 1014.3 0.0
06/06:30am NE 6 6 - - - - - - - 13.0 1013.8 0.0
06/06:00am NE 4 5 - - - - - - - 13.2 1013.6 0.0
06/05:30am NE 4 5 - - - - - - - 13.8 1013.5 0.0
06/05:00am ENE 5 7 - - - - - - - 14.7 1013.4 0.0
06/04:30am E 6 8 - - - - - - - 15.2 1013.7 0.0
06/04:00am E 5 7 - - - - - - - 15.3 1014.1 0.0
06/03:30am E 5 7 - - - - - - - 15.3 1014.2 0.0
06/03:00am E 7 10 - - - - - - - 15.5 1014.2 0.0
06/02:30am ESE 7 13 - - - - - - - 15.7 1014.7 0.0
06/02:00am ESE 7 10 - - - - - - - 15.7 1015.0 0.0
06/01:30am SE 7 11 - - - - - - - 15.6 1015.3 0.0
06/01:00am ESE 7 10 - - - - - - - 15.5 1015.5 0.0
06/12:30am ESE 7 11 - - - - - - - 15.6 1015.7 0.0
06/12:00am ESE 7 11 - - - - - - - 15.8 1015.8 0.0
 
Date/Time
CDT
Wind Sea
Height
m
Swell Vis
km
Cloud Weather Temp
°C
Press
MSL
hPa
Rain since
9am
mm
Dir  Spd
kts
Gust
kts
Height
m
Period
s
Dir
05/11:30pm ESE 7 10 - - - - - - - 15.8 1015.8 0.0
05/11:00pm E 6 9 - - - - - - - 16.1 1015.7 0.0
05/10:30pm ESE 7 9 - - - - - - - 16.1 1015.7 0.0
05/10:00pm E 7 10 - - - - - - - 16.3 1015.4 0.0
05/09:30pm E 7 10 - - - - - - - 16.4 1015.4 0.0
05/09:00pm E 8 13 - - - - - - - 16.4 1014.9 0.0
05/08:30pm E 10 15 - - - - - - - 16.8 1014.8 0.0
05/08:00pm ESE 12 17 - - - - - - - 17.3 1014.7 0.0
05/07:30pm ESE 11 16 - - - - - - - 17.9 1014.8 0.0
05/07:00pm ESE 11 16 - - - - - - - 18.4 1014.4 0.0
05/06:30pm ESE 12 18 - - - - - - - 18.4 1014.4 0.0
05/06:00pm ESE 11 16 - - - - - - - 18.6 1014.5 0.0
05/05:30pm ESE 11 19 - - - - - - - 19.1 1014.7 0.0
05/05:00pm ESE 12 17 - - - - - - - 19.3 1015.1 0.0
05/04:30pm ESE 12 17 - - - - - - - 20.1 1015.3 0.0
05/04:00pm ESE 13 19 - - - - - - - 19.6 1015.5 0.0
05/03:30pm ESE 13 18 - - - - - - - 19.6 1015.9 0.0
05/03:00pm ESE 13 17 - - - - - - - 20.0 1016.3 0.0
05/02:30pm ESE 12 18 - - - - - - - 19.9 1016.7 0.0
05/02:00pm ESE 12 17 - - - - - - - 19.6 1017.4 0.0
05/01:30pm ESE 11 16 - - - - - - - 19.4 1017.9 0.0
05/01:00pm ESE 11 17 - - - - - - - 19.0 1018.2 0.0
05/12:30pm ESE 12 17 - - - - - - - 18.8 1018.5 0.0
05/12:00pm ESE 10 15 - - - - - - - 18.7 1019.0 0.0
05/11:30am ESE 10 17 - - - - - - Recent precip. 18.6 1018.9 7.8
05/11:00am E 8 14 - - - - - - - 18.1 1019.3 7.8
05/10:30am E 9 16 - - - - - - - 17.7 1019.5 7.6
05/10:00am E 9 14 - - - - - - - 17.7 1019.8 7.6
05/09:30am ESE 8 12 - - - - - - - 16.8 1019.9 7.6
05/09:00am E 8 13 - - - - - - - 16.2 1019.8 7.6
05/08:30am E 9 12 - - - - - - - 15.8 1019.7 7.6
05/08:00am ESE 7 9 - - - - - - - 14.9 1019.7 7.6
05/07:30am ESE 7 12 - - - - - - - 14.3 1019.7 7.6
05/07:00am S 6 8 - - - - - - - 13.9 1019.5 7.6
05/06:30am W 6 9 - - - - - - - 13.9 1019.4 7.6
05/06:19am NW 6 10 - - - - - - - 14.0 1019.1 7.6
05/06:00am E 11 18 - - - - - - - 13.9 1017.1 7.6
05/05:30am E 12 19 - - - - - - Recent precip. 13.3 1016.6 7.6
05/05:00am ENE 10 15 - - - - - - - 13.7 1018.2 7.4
05/04:30am E 7 11 - - - - - - - 14.2 1019.1 6.8
05/04:00am ESE 8 12 - - - - - - - 14.6 1019.4 6.6
05/03:30am ESE 8 11 - - - - - - - 14.5 1019.6 6.4
05/03:00am ESE 7 10 - - - - - - - 14.5 1020.3 6.4
05/02:30am E 7 10 - - - - - - Rain 14.6 1020.7 5.4
05/02:00am E 6 10 - - - - - - - 14.8 1021.0 3.0
05/01:30am E 8 11 - - - - - - - 14.9 1020.9 2.0
05/01:00am ESE 8 13 - - - - - - - 15.1 1021.0 0.6
05/12:30am ESE 8 14 - - - - - - - 15.3 1021.3 0.4
05/12:00am ESE 8 12 - - - - - - - 15.8 1021.4 0.0
 
Date/Time
CDT
Wind Sea
Height
m
Swell Vis
km
Cloud Weather Temp
°C
Press
MSL
hPa
Rain since
9am
mm
Dir  Spd
kts
Gust
kts
Height
m
Period
s
Dir
04/11:30pm ESE 8 12 - - - - - - - 15.9 1021.0 0.0
04/11:00pm ESE 10 15 - - - - - - - 15.9 1020.9 0.0
04/10:30pm ESE 10 16 - - - - - - - 15.9 1020.7 0.0
04/10:00pm ESE 9 16 - - - - - - - 15.9 1020.7 0.0
04/09:30pm E 9 14 - - - - - - - 15.8 1020.9 0.0
04/09:00pm E 8 10 - - - - - - - 15.7 1020.7 0.0
04/08:30pm E 9 15 - - - - - - - 16.1 1020.6 0.0
04/08:00pm E 9 12 - - - - - - - 16.2 1020.7 0.0
04/07:30pm ESE 9 16 - - - - - - - 16.3 1020.8 0.0
04/07:00pm E 13 19 - - - - - - - 16.4 1019.9 0.0
04/06:30pm ESE 9 16 - - - - - - - 16.6 1021.0 0.0
04/06:00pm E 11 19 - - - - - - - 17.0 1020.5 0.0
04/05:30pm ESE 14 20 - - - - - - - 17.1 1020.1 0.0
04/05:00pm E 14 23 - - - - - - - 17.1 1020.9 0.0
04/04:30pm E 13 20 - - - - - - - 17.6 1021.2 0.0
04/04:00pm ESE 12 19 - - - - - - - 17.1 1021.7 0.0
04/03:30pm ESE 11 18 - - - - - - - 17.3 1021.8 0.0
04/03:00pm ESE 14 19 - - - - - - - 17.7 1021.7 0.0
04/02:30pm ESE 11 17 - - - - - - - 17.3 1022.1 0.0
04/02:00pm ESE 12 18 - - - - - - - 17.4 1022.3 0.0
04/01:30pm ESE 13 19 - - - - - - - 17.9 1022.5 0.0
04/01:00pm ESE 12 20 - - - - - - - 18.3 1022.9 0.0
04/12:30pm ESE 13 21 - - - - - - - 18.3 1023.2 0.0
04/12:00pm ESE 13 19 - - - - - - - 17.8 1023.0 0.0
04/11:30am ESE 12 19 - - - - - - - 16.9 1023.7 0.2
04/11:00am E 12 18 - - - - - - - 17.0 1023.9 0.2
04/10:30am ESE 12 19 - - - - - - - 17.0 1023.6 0.2
04/10:00am E 11 17 - - - - - - - 16.8 1023.8 0.2
04/09:30am E 8 14 - - - - - - - 16.0 1023.6 0.2
04/09:00am ESE 8 13 - - - - - - - 16.1 1024.3 0.0
04/08:56am ESE 8 15 - - - - - - - 16.1 1024.5 0.0
04/08:30am ESE 12 20 - - - - - - - 16.0 1022.5 0.0
04/08:00am ESE 12 18 - - - - - - - 15.9 1022.6 0.0
04/07:30am ESE 12 19 - - - - - - - 15.7 1022.7 0.0
04/07:00am ESE 12 17 - - - - - - - 15.5 1021.9 0.0
04/06:30am SE 11 16 - - - - - - - 16.0 1022.5 0.0
04/06:00am ESE 11 17 - - - - - - - 15.9 1021.8 0.0
04/05:30am ESE 12 18 - - - - - - - 16.0 1021.8 0.0
04/05:00am ESE 9 15 - - - - - - - 16.1 1022.4 0.0
04/04:30am ESE 11 18 - - - - - - - 16.2 1022.0 0.0
04/04:00am ESE 9 14 - - - - - - - 16.2 1021.8 0.0
04/03:30am ESE 12 17 - - - - - - - 16.2 1021.3 0.0
04/03:00am ESE 10 14 - - - - - - - 16.3 1022.3 0.0
04/02:30am ESE 11 18 - - - - - - - 16.3 1022.7 0.0
04/02:00am ESE 12 20 - - - - - - - 16.2 1020.9 0.0
04/01:30am ESE 14 23 - - - - - - - 16.3 1021.1 0.0
04/01:00am SE 12 18 - - - - - - - 16.3 1021.8 0.0
04/12:30am ESE 12 19 - - - - - - - 16.4 1022.3 0.0
04/12:00am ESE 12 17 - - - - - - - 16.4 1022.4 0.0
 
Date/Time
CDT
Wind Sea
Height
m
Swell Vis
km
Cloud Weather Temp
°C
Press
MSL
hPa
Rain since
9am
mm
Dir  Spd
kts
Gust
kts
Height
m
Period
s
Dir
03/11:30pm ESE 11 20 - - - - - - - 16.4 1022.2 0.0
03/11:00pm SE 16 25 - - - - - - - 16.4 1021.3 0.0
03/10:49pm SE 16 28 - - - - - - - 16.4 1020.8 0.0
03/10:30pm SE 14 22 - - - - - - - 16.6 1021.8 0.0
03/10:00pm SE 10 16 - - - - - - - 16.6 1022.0 0.0
03/09:30pm ESE 10 16 - - - - - - - 16.7 1022.7 0.0
03/09:00pm ESE 8 13 - - - - - - - 16.8 1022.6 0.0
03/08:30pm ESE 10 14 - - - - - - - 16.9 1022.4 0.0
03/08:00pm SE 11 18 - - - - - - - 17.1 1021.6 0.0
03/07:30pm SE 12 17 - - - - - - - 17.4 1021.0 0.0

Other formats

Comma delimited format used in spreadsheet applications
http://www.bom.gov.au/fwo/IDS60701/IDS60701.94647.axf

JavaScript Object Notation format (JSON) in row-major order
http://www.bom.gov.au/fwo/IDS60701/IDS60701.94647.json

Data quality

Most of these data are generated automatically and are frequently updated. Quality checks on data are not normally performed. It is possible for incorrect values to appear. Refer to information at About Latest Weather Observations and please check the disclaimer before using these data.